sensor_id;sensor_type;location;lat;lon;timestamp;P1;P2;P0
80396;PMS5003;69721;55.894;-3.052;2023-08-12T00:02:01;8;6;
80396;PMS5003;69721;55.894;-3.052;2023-08-12T00:04:27;10;6;
80396;PMS5003;69721;55.894;-3.052;2023-08-12T00:06:52;9;6;
80396;PMS5003;69721;55.894;-3.052;2023-08-12T00:09:17;7;4;
80396;PMS5003;69721;55.894;-3.052;2023-08-12T00:11:43;6;3;
80396;PMS5003;69721;55.894;-3.052;2023-08-12T00:14:08;6;3;
80396;PMS5003;69721;55.894;-3.052;2023-08-12T00:16:33;8;4;
80396;PMS5003;69721;55.894;-3.052;2023-08-12T00:18:59;4;3;
80396;PMS5003;69721;55.894;-3.052;2023-08-12T00:21:25;12;5;
80396;PMS5003;69721;55.894;-3.052;2023-08-12T00:23:50;4;3;
80396;PMS5003;69721;55.894;-3.052;2023-08-12T00:26:15;7;5;
80396;PMS5003;69721;55.894;-3.052;2023-08-12T00:28:40;12;5;
80396;PMS5003;69721;55.894;-3.052;2023-08-12T00:31:06;6;4;
80396;PMS5003;69721;55.894;-3.052;2023-08-12T00:33:31;7;4;
80396;PMS5003;69721;55.894;-3.052;2023-08-12T00:35:56;6;3;
80396;PMS5003;69721;55.894;-3.052;2023-08-12T00:38:22;7;4;
80396;PMS5003;69721;55.894;-3.052;2023-08-12T00:40:47;6;4;
80396;PMS5003;69721;55.894;-3.052;2023-08-12T00:43:12;9;4;
80396;PMS5003;69721;55.894;-3.052;2023-08-12T00:45:37;5;4;
80396;PMS5003;69721;55.894;-3.052;2023-08-12T00:50:28;7;4;
80396;PMS5003;69721;55.894;-3.052;2023-08-12T00:52:53;9;4;
80396;PMS5003;69721;55.894;-3.052;2023-08-12T00:55:18;7;4;
80396;PMS5003;69721;55.894;-3.052;2023-08-12T00:57:44;10;5;
80396;PMS5003;69721;55.894;-3.052;2023-08-12T01:00:10;7;2;
80396;PMS5003;69721;55.894;-3.052;2023-08-12T01:02:34;4;4;
80396;PMS5003;69721;55.894;-3.052;2023-08-12T01:05:00;2;2;
80396;PMS5003;69721;55.894;-3.052;2023-08-12T01:07:25;3;3;
80396;PMS5003;69721;55.894;-3.052;2023-08-12T01:09:50;4;2;
80396;PMS5003;69721;55.894;-3.052;2023-08-12T01:12:17;8;4;
80396;PMS5003;69721;55.894;-3.052;2023-08-12T01:14:43;6;2;
80396;PMS5003;69721;55.894;-3.052;2023-08-12T01:17:07;6;3;
80396;PMS5003;69721;55.894;-3.052;2023-08-12T01:19:32;3;2;
80396;PMS5003;69721;55.894;-3.052;2023-08-12T01:21:58;2;2;
80396;PMS5003;69721;55.894;-3.052;2023-08-12T01:24:24;2;2;
80396;PMS5003;69721;55.894;-3.052;2023-08-12T01:26:48;5;1;
80396;PMS5003;69721;55.894;-3.052;2023-08-12T01:29:13;6;4;
80396;PMS5003;69721;55.894;-3.052;2023-08-12T01:31:40;5;3;
80396;PMS5003;69721;55.894;-3.052;2023-08-12T01:34:06;6;4;
80396;PMS5003;69721;55.894;-3.052;2023-08-12T01:36:29;6;2;
80396;PMS5003;69721;55.894;-3.052;2023-08-12T01:38:55;4;4;
80396;PMS5003;69721;55.894;-3.052;2023-08-12T01:41:20;5;3;
80396;PMS5003;69721;55.894;-3.052;2023-08-12T01:43:45;7;3;
80396;PMS5003;69721;55.894;-3.052;2023-08-12T01:46:11;6;4;
80396;PMS5003;69721;55.894;-3.052;2023-08-12T01:48:36;3;3;
80396;PMS5003;69721;55.894;-3.052;2023-08-12T01:51:01;4;3;
80396;PMS5003;69721;55.894;-3.052;2023-08-12T01:53:27;2;2;
80396;PMS5003;69721;55.894;-3.052;2023-08-12T01:55:52;8;3;
80396;PMS5003;69721;55.894;-3.052;2023-08-12T02:00:43;3;3;
80396;PMS5003;69721;55.894;-3.052;2023-08-12T02:03:08;1;1;
80396;PMS5003;69721;55.894;-3.052;2023-08-12T02:05:33;3;1;
80396;PMS5003;69721;55.894;-3.052;2023-08-12T02:07:59;2;2;
80396;PMS5003;69721;55.894;-3.052;2023-08-12T02:10:24;2;0;
80396;PMS5003;69721;55.894;-3.052;2023-08-12T02:12:49;1;1;
80396;PMS5003;69721;55.894;-3.052;2023-08-12T02:15:15;1;1;
80396;PMS5003;69721;55.894;-3.052;2023-08-12T02:17:40;1;1;
80396;PMS5003;69721;55.894;-3.052;2023-08-12T02:20:06;0;0;
80396;PMS5003;69721;55.894;-3.052;2023-08-12T02:22:31;2;1;
80396;PMS5003;69721;55.894;-3.052;2023-08-12T02:24:57;1;1;
80396;PMS5003;69721;55.894;-3.052;2023-08-12T02:27:22;1;1;
80396;PMS5003;69721;55.894;-3.052;2023-08-12T02:29:47;1;1;
80396;PMS5003;69721;55.894;-3.052;2023-08-12T02:32:13;6;1;
80396;PMS5003;69721;55.894;-3.052;2023-08-12T02:34:38;3;0;
80396;PMS5003;69721;55.894;-3.052;2023-08-12T02:37:03;1;1;
80396;PMS5003;69721;55.894;-3.052;2023-08-12T02:39:29;4;1;
80396;PMS5003;69721;55.894;-3.052;2023-08-12T02:41:54;3;2;
80396;PMS5003;69721;55.894;-3.052;2023-08-12T02:44:19;1;1;
80396;PMS5003;69721;55.894;-3.052;2023-08-12T02:46:45;2;2;
80396;PMS5003;69721;55.894;-3.052;2023-08-12T02:49:10;4;2;
80396;PMS5003;69721;55.894;-3.052;2023-08-12T02:51:35;3;1;
80396;PMS5003;69721;55.894;-3.052;2023-08-12T02:54:01;2;1;
80396;PMS5003;69721;55.894;-3.052;2023-08-12T02:56:26;1;1;
80396;PMS5003;69721;55.894;-3.052;2023-08-12T02:58:52;1;1;
80396;PMS5003;69721;55.894;-3.052;2023-08-12T03:01:17;4;3;
80396;PMS5003;69721;55.894;-3.052;2023-08-12T03:03:42;1;1;
80396;PMS5003;69721;55.894;-3.052;2023-08-12T03:06:08;3;2;
80396;PMS5003;69721;55.894;-3.052;2023-08-12T03:10:58;3;3;
80396;PMS5003;69721;55.894;-3.052;2023-08-12T03:13:24;2;2;
80396;PMS5003;69721;55.894;-3.052;2023-08-12T03:15:49;2;2;
80396;PMS5003;69721;55.894;-3.052;2023-08-12T03:18:15;2;2;
80396;PMS5003;69721;55.894;-3.052;2023-08-12T03:20:40;3;2;
80396;PMS5003;69721;55.894;-3.052;2023-08-12T03:23:07;5;3;
80396;PMS5003;69721;55.894;-3.052;2023-08-12T03:25:32;3;3;
80396;PMS5003;69721;55.894;-3.052;2023-08-12T03:27:57;8;3;
80396;PMS5003;69721;55.894;-3.052;2023-08-12T03:30:23;4;2;
80396;PMS5003;69721;55.894;-3.052;2023-08-12T03:32:48;4;2;
80396;PMS5003;69721;55.894;-3.052;2023-08-12T03:35:14;4;4;
80396;PMS5003;69721;55.894;-3.052;2023-08-12T03:37:39;8;3;
80396;PMS5003;69721;55.894;-3.052;2023-08-12T03:40:05;4;2;
80396;PMS5003;69721;55.894;-3.052;2023-08-12T03:42:29;6;2;
80396;PMS5003;69721;55.894;-3.052;2023-08-12T03:44:55;3;3;
80396;PMS5003;69721;55.894;-3.052;2023-08-12T03:47:20;3;1;
80396;PMS5003;69721;55.894;-3.052;2023-08-12T03:49:45;7;2;
80396;PMS5003;69721;55.894;-3.052;2023-08-12T03:52:11;2;2;
80396;PMS5003;69721;55.894;-3.052;2023-08-12T03:54:37;4;2;
80396;PMS5003;69721;55.894;-3.052;2023-08-12T03:57:02;7;4;
80396;PMS5003;69721;55.894;-3.052;2023-08-12T03:59:28;3;2;
80396;PMS5003;69721;55.894;-3.052;2023-08-12T04:01:53;1;1;
80396;PMS5003;69721;55.894;-3.052;2023-08-12T04:04:18;2;2;
80396;PMS5003;69721;55.894;-3.052;2023-08-12T04:06:43;9;4;
80396;PMS5003;69721;55.894;-3.052;2023-08-12T04:09:09;4;4;
80396;PMS5003;69721;55.894;-3.052;2023-08-12T04:11:35;7;2;
80396;PMS5003;69721;55.894;-3.052;2023-08-12T04:14:00;2;2;
80396;PMS5003;69721;55.894;-3.052;2023-08-12T04:16:26;4;2;
80396;PMS5003;69721;55.894;-3.052;2023-08-12T04:21:16;1;1;
80396;PMS5003;69721;55.894;-3.052;2023-08-12T04:23:42;2;2;
80396;PMS5003;69721;55.894;-3.052;2023-08-12T04:26:07;3;1;
80396;PMS5003;69721;55.894;-3.052;2023-08-12T04:28:33;2;0;
80396;PMS5003;69721;55.894;-3.052;2023-08-12T04:30:58;2;2;
80396;PMS5003;69721;55.894;-3.052;2023-08-12T04:33:23;4;3;
80396;PMS5003;69721;55.894;-3.052;2023-08-12T04:35:48;5;2;
80396;PMS5003;69721;55.894;-3.052;2023-08-12T04:38:13;5;3;
80396;PMS5003;69721;55.894;-3.052;2023-08-12T04:40:39;4;2;
80396;PMS5003;69721;55.894;-3.052;2023-08-12T04:43:04;3;2;
80396;PMS5003;69721;55.894;-3.052;2023-08-12T04:45:29;1;1;
80396;PMS5003;69721;55.894;-3.052;2023-08-12T04:47:57;3;1;
80396;PMS5003;69721;55.894;-3.052;2023-08-12T04:50:20;4;3;
80396;PMS5003;69721;55.894;-3.052;2023-08-12T04:52:45;5;3;
80396;PMS5003;69721;55.894;-3.052;2023-08-12T04:55:11;4;2;
80396;PMS5003;69721;55.894;-3.052;2023-08-12T04:57:36;2;2;
80396;PMS5003;69721;55.894;-3.052;2023-08-12T05:00:02;5;3;
80396;PMS5003;69721;55.894;-3.052;2023-08-12T05:02:27;7;4;
80396;PMS5003;69721;55.894;-3.052;2023-08-12T05:04:52;4;4;
80396;PMS5003;69721;55.894;-3.052;2023-08-12T05:07:18;5;5;
80396;PMS5003;69721;55.894;-3.052;2023-08-12T05:09:43;7;4;
80396;PMS5003;69721;55.894;-3.052;2023-08-12T05:12:08;4;3;
80396;PMS5003;69721;55.894;-3.052;2023-08-12T05:14:34;4;4;
80396;PMS5003;69721;55.894;-3.052;2023-08-12T05:16:59;6;4;
80396;PMS5003;69721;55.894;-3.052;2023-08-12T05:19:24;5;1;
80396;PMS5003;69721;55.894;-3.052;2023-08-12T05:21:50;3;3;
80396;PMS5003;69721;55.894;-3.052;2023-08-12T05:24:15;5;3;
80396;PMS5003;69721;55.894;-3.052;2023-08-12T05:26:40;7;3;
80396;PMS5003;69721;55.894;-3.052;2023-08-12T05:31:31;8;3;
80396;PMS5003;69721;55.894;-3.052;2023-08-12T05:33:56;6;4;
80396;PMS5003;69721;55.894;-3.052;2023-08-12T05:36:21;7;5;
80396;PMS5003;69721;55.894;-3.052;2023-08-12T05:38:47;4;2;
80396;PMS5003;69721;55.894;-3.052;2023-08-12T05:41:12;9;3;
80396;PMS5003;69721;55.894;-3.052;2023-08-12T05:43:38;4;1;
80396;PMS5003;69721;55.894;-3.052;2023-08-12T05:46:03;3;3;
80396;PMS5003;69721;55.894;-3.052;2023-08-12T05:48:28;8;4;
80396;PMS5003;69721;55.894;-3.052;2023-08-12T05:50:54;7;4;
80396;PMS5003;69721;55.894;-3.052;2023-08-12T05:53:19;4;2;
80396;PMS5003;69721;55.894;-3.052;2023-08-12T05:55:44;9;4;
80396;PMS5003;69721;55.894;-3.052;2023-08-12T05:58:10;7;3;
80396;PMS5003;69721;55.894;-3.052;2023-08-12T06:00:35;8;5;
80396;PMS5003;69721;55.894;-3.052;2023-08-12T06:03:00;3;3;
80396;PMS5003;69721;55.894;-3.052;2023-08-12T06:05:26;5;2;
80396;PMS5003;69721;55.894;-3.052;2023-08-12T06:07:51;4;4;
80396;PMS5003;69721;55.894;-3.052;2023-08-12T06:10:16;5;1;
80396;PMS5003;69721;55.894;-3.052;2023-08-12T06:12:41;3;2;
80396;PMS5003;69721;55.894;-3.052;2023-08-12T06:15:07;2;1;
80396;PMS5003;69721;55.894;-3.052;2023-08-12T06:17:32;3;2;
80396;PMS5003;69721;55.894;-3.052;2023-08-12T06:19:58;7;4;
80396;PMS5003;69721;55.894;-3.052;2023-08-12T06:22:23;4;2;
80396;PMS5003;69721;55.894;-3.052;2023-08-12T06:24:49;0;0;
80396;PMS5003;69721;55.894;-3.052;2023-08-12T06:27:15;5;3;
80396;PMS5003;69721;55.894;-3.052;2023-08-12T06:29:40;4;3;
80396;PMS5003;69721;55.894;-3.052;2023-08-12T06:32:05;6;2;
80396;PMS5003;69721;55.894;-3.052;2023-08-12T06:34:31;9;2;
80396;PMS5003;69721;55.894;-3.052;2023-08-12T06:36:56;6;3;
80396;PMS5003;69721;55.894;-3.052;2023-08-12T06:41:47;3;3;
80396;PMS5003;69721;55.894;-3.052;2023-08-12T06:44:12;7;2;
80396;PMS5003;69721;55.894;-3.052;2023-08-12T06:46:37;2;2;
80396;PMS5003;69721;55.894;-3.052;2023-08-12T06:49:03;6;4;
80396;PMS5003;69721;55.894;-3.052;2023-08-12T06:51:28;5;5;
80396;PMS5003;69721;55.894;-3.052;2023-08-12T06:53:54;4;4;
80396;PMS5003;69721;55.894;-3.052;2023-08-12T06:56:19;6;3;
80396;PMS5003;69721;55.894;-3.052;2023-08-12T06:58:45;8;4;
80396;PMS5003;69721;55.894;-3.052;2023-08-12T07:01:10;6;2;
80396;PMS5003;69721;55.894;-3.052;2023-08-12T07:03:36;7;5;
80396;PMS5003;69721;55.894;-3.052;2023-08-12T07:06:01;4;3;
80396;PMS5003;69721;55.894;-3.052;2023-08-12T07:08:27;4;2;
80396;PMS5003;69721;55.894;-3.052;2023-08-12T07:10:52;4;2;
80396;PMS5003;69721;55.894;-3.052;2023-08-12T07:13:17;4;3;
80396;PMS5003;69721;55.894;-3.052;2023-08-12T07:15:43;4;1;
80396;PMS5003;69721;55.894;-3.052;2023-08-12T07:18:08;7;2;
80396;PMS5003;69721;55.894;-3.052;2023-08-12T07:20:33;4;2;
80396;PMS5003;69721;55.894;-3.052;2023-08-12T07:22:59;4;1;
80396;PMS5003;69721;55.894;-3.052;2023-08-12T07:25:24;2;1;
80396;PMS5003;69721;55.894;-3.052;2023-08-12T07:27:49;4;1;
80396;PMS5003;69721;55.894;-3.052;2023-08-12T07:30:15;3;3;
80396;PMS5003;69721;55.894;-3.052;2023-08-12T07:32:40;3;2;
80396;PMS5003;69721;55.894;-3.052;2023-08-12T07:35:06;5;3;
80396;PMS5003;69721;55.894;-3.052;2023-08-12T07:37:31;2;2;
80396;PMS5003;69721;55.894;-3.052;2023-08-12T07:39:56;3;2;
80396;PMS5003;69721;55.894;-3.052;2023-08-12T07:42:21;0;0;
80396;PMS5003;69721;55.894;-3.052;2023-08-12T07:44:47;5;1;
80396;PMS5003;69721;55.894;-3.052;2023-08-12T07:47:12;2;2;
80396;PMS5003;69721;55.894;-3.052;2023-08-12T07:52:03;0;0;
80396;PMS5003;69721;55.894;-3.052;2023-08-12T07:54:29;4;1;
80396;PMS5003;69721;55.894;-3.052;2023-08-12T07:56:54;4;1;
80396;PMS5003;69721;55.894;-3.052;2023-08-12T07:59:20;4;1;
80396;PMS5003;69721;55.894;-3.052;2023-08-12T08:01:46;3;1;
80396;PMS5003;69721;55.894;-3.052;2023-08-12T08:04:11;0;0;
80396;PMS5003;69721;55.894;-3.052;2023-08-12T08:06:36;2;0;
80396;PMS5003;69721;55.894;-3.052;2023-08-12T08:09:02;1;1;
80396;PMS5003;69721;55.894;-3.052;2023-08-12T08:11:27;2;0;
80396;PMS5003;69721;55.894;-3.052;2023-08-12T08:13:52;1;1;
80396;PMS5003;69721;55.894;-3.052;2023-08-12T08:16:18;1;1;
80396;PMS5003;69721;55.894;-3.052;2023-08-12T08:18:43;3;0;
80396;PMS5003;69721;55.894;-3.052;2023-08-12T08:21:09;0;0;
80396;PMS5003;69721;55.894;-3.052;2023-08-12T08:23:34;2;1;
80396;PMS5003;69721;55.894;-3.052;2023-08-12T08:25:59;1;1;
80396;PMS5003;69721;55.894;-3.052;2023-08-12T08:28:25;3;1;
80396;PMS5003;69721;55.894;-3.052;2023-08-12T08:30:50;4;3;
80396;PMS5003;69721;55.894;-3.052;2023-08-12T08:33:15;2;2;
80396;PMS5003;69721;55.894;-3.052;2023-08-12T08:35:42;3;1;
80396;PMS5003;69721;55.894;-3.052;2023-08-12T08:38:08;1;1;
80396;PMS5003;69721;55.894;-3.052;2023-08-12T08:40:33;2;2;
80396;PMS5003;69721;55.894;-3.052;2023-08-12T08:42:59;3;2;
80396;PMS5003;69721;55.894;-3.052;2023-08-12T08:45:24;2;2;
80396;PMS5003;69721;55.894;-3.052;2023-08-12T08:47:49;3;1;
80396;PMS5003;69721;55.894;-3.052;2023-08-12T08:50:15;3;2;
80396;PMS5003;69721;55.894;-3.052;2023-08-12T08:52:40;3;2;
80396;PMS5003;69721;55.894;-3.052;2023-08-12T08:55:06;7;5;
80396;PMS5003;69721;55.894;-3.052;2023-08-12T08:57:31;4;3;
80396;PMS5003;69721;55.894;-3.052;2023-08-12T09:02:24;1;1;
80396;PMS5003;69721;55.894;-3.052;2023-08-12T09:04:47;3;3;
80396;PMS5003;69721;55.894;-3.052;2023-08-12T09:07:13;1;1;
80396;PMS5003;69721;55.894;-3.052;2023-08-12T09:09:38;2;2;
80396;PMS5003;69721;55.894;-3.052;2023-08-12T09:12:03;3;2;
80396;PMS5003;69721;55.894;-3.052;2023-08-12T09:14:28;1;1;
80396;PMS5003;69721;55.894;-3.052;2023-08-12T09:16:54;1;1;
80396;PMS5003;69721;55.894;-3.052;2023-08-12T09:19:19;3;3;
80396;PMS5003;69721;55.894;-3.052;2023-08-12T09:21:45;2;2;
80396;PMS5003;69721;55.894;-3.052;2023-08-12T09:24:10;1;1;
80396;PMS5003;69721;55.894;-3.052;2023-08-12T09:26:35;1;1;
80396;PMS5003;69721;55.894;-3.052;2023-08-12T09:29:01;1;1;
80396;PMS5003;69721;55.894;-3.052;2023-08-12T09:31:27;3;1;
80396;PMS5003;69721;55.894;-3.052;2023-08-12T09:33:51;2;0;
80396;PMS5003;69721;55.894;-3.052;2023-08-12T09:36:17;2;0;
80396;PMS5003;69721;55.894;-3.052;2023-08-12T09:38:42;1;0;
80396;PMS5003;69721;55.894;-3.052;2023-08-12T09:41:07;1;0;
80396;PMS5003;69721;55.894;-3.052;2023-08-12T09:43:33;0;0;
80396;PMS5003;69721;55.894;-3.052;2023-08-12T09:45:59;0;0;
80396;PMS5003;69721;55.894;-3.052;2023-08-12T09:48:24;0;0;
80396;PMS5003;69721;55.894;-3.052;2023-08-12T09:50:49;0;0;
80396;PMS5003;69721;55.894;-3.052;2023-08-12T09:53:15;0;0;
80396;PMS5003;69721;55.894;-3.052;2023-08-12T09:55:40;0;0;
80396;PMS5003;69721;55.894;-3.052;2023-08-12T09:58:06;0;0;
80396;PMS5003;69721;55.894;-3.052;2023-08-12T10:00:31;0;0;
80396;PMS5003;69721;55.894;-3.052;2023-08-12T10:02:56;0;0;
80396;PMS5003;69721;55.894;-3.052;2023-08-12T10:05:22;0;0;
80396;PMS5003;69721;55.894;-3.052;2023-08-12T10:07:47;0;0;
80396;PMS5003;69721;55.894;-3.052;2023-08-12T10:12:38;0;0;
80396;PMS5003;69721;55.894;-3.052;2023-08-12T10:15:03;0;0;
80396;PMS5003;69721;55.894;-3.052;2023-08-12T10:17:28;0;0;
80396;PMS5003;69721;55.894;-3.052;2023-08-12T10:19:54;0;0;
80396;PMS5003;69721;55.894;-3.052;2023-08-12T10:22:19;0;0;
80396;PMS5003;69721;55.894;-3.052;2023-08-12T10:24:44;0;0;
80396;PMS5003;69721;55.894;-3.052;2023-08-12T10:27:09;0;0;
80396;PMS5003;69721;55.894;-3.052;2023-08-12T10:29:35;0;0;
80396;PMS5003;69721;55.894;-3.052;2023-08-12T10:32:00;0;0;
80396;PMS5003;69721;55.894;-3.052;2023-08-12T10:34:25;1;0;
80396;PMS5003;69721;55.894;-3.052;2023-08-12T10:36:53;0;0;
80396;PMS5003;69721;55.894;-3.052;2023-08-12T10:39:16;0;0;
80396;PMS5003;69721;55.894;-3.052;2023-08-12T10:44:06;0;0;
80396;PMS5003;69721;55.894;-3.052;2023-08-12T10:46:33;0;0;
80396;PMS5003;69721;55.894;-3.052;2023-08-12T10:48:58;0;0;
80396;PMS5003;69721;55.894;-3.052;2023-08-12T10:53:48;0;0;
80396;PMS5003;69721;55.894;-3.052;2023-08-12T10:56:13;0;0;
80396;PMS5003;69721;55.894;-3.052;2023-08-12T10:58:41;0;0;
80396;PMS5003;69721;55.894;-3.052;2023-08-12T11:01:04;0;0;
80396;PMS5003;69721;55.894;-3.052;2023-08-12T11:03:31;0;0;
80396;PMS5003;69721;55.894;-3.052;2023-08-12T11:05:54;0;0;
80396;PMS5003;69721;55.894;-3.052;2023-08-12T11:08:19;0;0;
80396;PMS5003;69721;55.894;-3.052;2023-08-12T11:10:45;0;0;
80396;PMS5003;69721;55.894;-3.052;2023-08-12T11:13:10;0;0;
80396;PMS5003;69721;55.894;-3.052;2023-08-12T11:15:36;0;0;
80396;PMS5003;69721;55.894;-3.052;2023-08-12T11:18:02;0;0;
80396;PMS5003;69721;55.894;-3.052;2023-08-12T11:22:51;0;0;
80396;PMS5003;69721;55.894;-3.052;2023-08-12T11:25:17;0;0;
80396;PMS5003;69721;55.894;-3.052;2023-08-12T11:27:42;0;0;
80396;PMS5003;69721;55.894;-3.052;2023-08-12T11:30:08;0;0;
80396;PMS5003;69721;55.894;-3.052;2023-08-12T11:32:32;0;0;
80396;PMS5003;69721;55.894;-3.052;2023-08-12T11:34:58;0;0;
80396;PMS5003;69721;55.894;-3.052;2023-08-12T11:37:23;0;0;
80396;PMS5003;69721;55.894;-3.052;2023-08-12T11:39:51;0;0;
80396;PMS5003;69721;55.894;-3.052;2023-08-12T11:42:14;0;0;
80396;PMS5003;69721;55.894;-3.052;2023-08-12T11:44:39;0;0;
80396;PMS5003;69721;55.894;-3.052;2023-08-12T11:47:04;0;0;
80396;PMS5003;69721;55.894;-3.052;2023-08-12T11:49:29;1;0;
80396;PMS5003;69721;55.894;-3.052;2023-08-12T11:51:55;0;0;
80396;PMS5003;69721;55.894;-3.052;2023-08-12T11:54:20;0;0;
80396;PMS5003;69721;55.894;-3.052;2023-08-12T11:56:45;0;0;
80396;PMS5003;69721;55.894;-3.052;2023-08-12T11:59:11;0;0;
80396;PMS5003;69721;55.894;-3.052;2023-08-12T12:01:36;0;0;
80396;PMS5003;69721;55.894;-3.052;2023-08-12T12:04:01;0;0;
80396;PMS5003;69721;55.894;-3.052;2023-08-12T12:06:29;0;0;
80396;PMS5003;69721;55.894;-3.052;2023-08-12T12:08:52;0;0;
80396;PMS5003;69721;55.894;-3.052;2023-08-12T12:11:17;0;0;
80396;PMS5003;69721;55.894;-3.052;2023-08-12T12:13:42;3;0;
80396;PMS5003;69721;55.894;-3.052;2023-08-12T12:16:09;0;0;
80396;PMS5003;69721;55.894;-3.052;2023-08-12T12:18:35;0;0;
80396;PMS5003;69721;55.894;-3.052;2023-08-12T12:20:59;0;0;
80396;PMS5003;69721;55.894;-3.052;2023-08-12T12:23:26;0;0;
80396;PMS5003;69721;55.894;-3.052;2023-08-12T12:25:49;0;0;
80396;PMS5003;69721;55.894;-3.052;2023-08-12T12:28:14;0;0;
80396;PMS5003;69721;55.894;-3.052;2023-08-12T12:30:40;0;0;
80396;PMS5003;69721;55.894;-3.052;2023-08-12T12:35:30;7;7;
80396;PMS5003;69721;55.894;-3.052;2023-08-12T12:37:55;2;2;
80396;PMS5003;69721;55.894;-3.052;2023-08-12T12:40:20;3;3;
80396;PMS5003;69721;55.894;-3.052;2023-08-12T12:42:46;0;0;
80396;PMS5003;69721;55.894;-3.052;2023-08-12T12:45:11;0;0;
80396;PMS5003;69721;55.894;-3.052;2023-08-12T12:47:37;7;6;
80396;PMS5003;69721;55.894;-3.052;2023-08-12T12:50:02;1;0;
80396;PMS5003;69721;55.894;-3.052;2023-08-12T12:52:27;0;0;
80396;PMS5003;69721;55.894;-3.052;2023-08-12T12:54:52;0;0;
80396;PMS5003;69721;55.894;-3.052;2023-08-12T12:57:18;7;7;
80396;PMS5003;69721;55.894;-3.052;2023-08-12T12:59:44;1;1;
80396;PMS5003;69721;55.894;-3.052;2023-08-12T13:02:09;0;0;
80396;PMS5003;69721;55.894;-3.052;2023-08-12T13:04:35;0;0;
80396;PMS5003;69721;55.894;-3.052;2023-08-12T13:07:00;1;0;
80396;PMS5003;69721;55.894;-3.052;2023-08-12T13:09:25;0;0;
80396;PMS5003;69721;55.894;-3.052;2023-08-12T13:11:51;1;1;
80396;PMS5003;69721;55.894;-3.052;2023-08-12T13:14:16;5;2;
80396;PMS5003;69721;55.894;-3.052;2023-08-12T13:16:41;2;1;
80396;PMS5003;69721;55.894;-3.052;2023-08-12T13:19:07;2;2;
80396;PMS5003;69721;55.894;-3.052;2023-08-12T13:21:32;3;1;
80396;PMS5003;69721;55.894;-3.052;2023-08-12T13:23:57;0;0;
80396;PMS5003;69721;55.894;-3.052;2023-08-12T13:26:23;1;1;
80396;PMS5003;69721;55.894;-3.052;2023-08-12T13:28:48;0;0;
80396;PMS5003;69721;55.894;-3.052;2023-08-12T13:31:13;3;1;
80396;PMS5003;69721;55.894;-3.052;2023-08-12T13:33:38;2;2;
80396;PMS5003;69721;55.894;-3.052;2023-08-12T13:36:04;2;2;
80396;PMS5003;69721;55.894;-3.052;2023-08-12T13:38:29;0;0;
80396;PMS5003;69721;55.894;-3.052;2023-08-12T13:40:54;2;2;
80396;PMS5003;69721;55.894;-3.052;2023-08-12T13:45:45;2;2;
80396;PMS5003;69721;55.894;-3.052;2023-08-12T13:48:10;2;2;
80396;PMS5003;69721;55.894;-3.052;2023-08-12T13:50:36;3;2;
80396;PMS5003;69721;55.894;-3.052;2023-08-12T13:53:01;3;2;
80396;PMS5003;69721;55.894;-3.052;2023-08-12T13:55:26;2;2;
80396;PMS5003;69721;55.894;-3.052;2023-08-12T13:57:51;1;1;
80396;PMS5003;69721;55.894;-3.052;2023-08-12T14:00:17;1;1;
80396;PMS5003;69721;55.894;-3.052;2023-08-12T14:02:42;4;2;
80396;PMS5003;69721;55.894;-3.052;2023-08-12T14:05:09;2;1;
80396;PMS5003;69721;55.894;-3.052;2023-08-12T14:07:34;2;2;
80396;PMS5003;69721;55.894;-3.052;2023-08-12T14:09:59;3;1;
80396;PMS5003;69721;55.894;-3.052;2023-08-12T14:12:24;2;2;
80396;PMS5003;69721;55.894;-3.052;2023-08-12T14:14:50;3;3;
80396;PMS5003;69721;55.894;-3.052;2023-08-12T14:17:15;2;2;
80396;PMS5003;69721;55.894;-3.052;2023-08-12T14:19:40;2;2;
80396;PMS5003;69721;55.894;-3.052;2023-08-12T14:22:05;0;0;
80396;PMS5003;69721;55.894;-3.052;2023-08-12T14:24:31;1;1;
80396;PMS5003;69721;55.894;-3.052;2023-08-12T14:26:56;5;2;
80396;PMS5003;69721;55.894;-3.052;2023-08-12T14:29:21;2;2;
80396;PMS5003;69721;55.894;-3.052;2023-08-12T14:31:47;3;2;
80396;PMS5003;69721;55.894;-3.052;2023-08-12T14:34:12;1;1;
80396;PMS5003;69721;55.894;-3.052;2023-08-12T14:36:37;2;2;
80396;PMS5003;69721;55.894;-3.052;2023-08-12T14:39:03;3;1;
80396;PMS5003;69721;55.894;-3.052;2023-08-12T14:41:28;5;3;
80396;PMS5003;69721;55.894;-3.052;2023-08-12T14:43:53;2;2;
80396;PMS5003;69721;55.894;-3.052;2023-08-12T14:46:19;2;2;
80396;PMS5003;69721;55.894;-3.052;2023-08-12T14:48:45;2;2;
80396;PMS5003;69721;55.894;-3.052;2023-08-12T14:51:10;1;1;
80396;PMS5003;69721;55.894;-3.052;2023-08-12T14:56:01;4;2;
80396;PMS5003;69721;55.894;-3.052;2023-08-12T14:58:26;5;1;
80396;PMS5003;69721;55.894;-3.052;2023-08-12T15:00:51;0;0;
80396;PMS5003;69721;55.894;-3.052;2023-08-12T15:03:17;5;3;
80396;PMS5003;69721;55.894;-3.052;2023-08-12T15:05:42;1;1;
80396;PMS5003;69721;55.894;-3.052;2023-08-12T15:08:07;2;2;
80396;PMS5003;69721;55.894;-3.052;2023-08-12T15:10:33;0;0;
80396;PMS5003;69721;55.894;-3.052;2023-08-12T15:12:58;2;2;
80396;PMS5003;69721;55.894;-3.052;2023-08-12T15:15:23;2;2;
80396;PMS5003;69721;55.894;-3.052;2023-08-12T15:17:48;3;2;
80396;PMS5003;69721;55.894;-3.052;2023-08-12T15:20:14;1;1;
80396;PMS5003;69721;55.894;-3.052;2023-08-12T15:22:39;4;1;
80396;PMS5003;69721;55.894;-3.052;2023-08-12T15:25:05;3;3;
80396;PMS5003;69721;55.894;-3.052;2023-08-12T15:27:30;1;1;
80396;PMS5003;69721;55.894;-3.052;2023-08-12T15:29:55;2;2;
80396;PMS5003;69721;55.894;-3.052;2023-08-12T15:32:20;2;2;
80396;PMS5003;69721;55.894;-3.052;2023-08-12T15:34:46;3;1;
80396;PMS5003;69721;55.894;-3.052;2023-08-12T15:37:11;2;2;
80396;PMS5003;69721;55.894;-3.052;2023-08-12T15:39:36;1;1;
80396;PMS5003;69721;55.894;-3.052;2023-08-12T15:42:02;0;0;
80396;PMS5003;69721;55.894;-3.052;2023-08-12T15:44:27;3;2;
80396;PMS5003;69721;55.894;-3.052;2023-08-12T15:46:52;4;1;
80396;PMS5003;69721;55.894;-3.052;2023-08-12T15:49:17;1;1;
80396;PMS5003;69721;55.894;-3.052;2023-08-12T15:51:44;1;0;
80396;PMS5003;69721;55.894;-3.052;2023-08-12T15:54:09;1;1;
80396;PMS5003;69721;55.894;-3.052;2023-08-12T15:56:34;2;1;
80396;PMS5003;69721;55.894;-3.052;2023-08-12T15:59:00;1;1;
80396;PMS5003;69721;55.894;-3.052;2023-08-12T16:01:25;1;1;
80396;PMS5003;69721;55.894;-3.052;2023-08-12T16:06:15;2;1;
80396;PMS5003;69721;55.894;-3.052;2023-08-12T16:08:41;1;1;
80396;PMS5003;69721;55.894;-3.052;2023-08-12T16:11:07;1;1;
80396;PMS5003;69721;55.894;-3.052;2023-08-12T16:13:32;1;1;
80396;PMS5003;69721;55.894;-3.052;2023-08-12T16:15:58;0;0;
80396;PMS5003;69721;55.894;-3.052;2023-08-12T16:18:23;1;1;
80396;PMS5003;69721;55.894;-3.052;2023-08-12T16:20:48;0;0;
80396;PMS5003;69721;55.894;-3.052;2023-08-12T16:23:13;2;1;
80396;PMS5003;69721;55.894;-3.052;2023-08-12T16:25:39;2;1;
80396;PMS5003;69721;55.894;-3.052;2023-08-12T16:28:04;1;1;
80396;PMS5003;69721;55.894;-3.052;2023-08-12T16:30:29;1;1;
80396;PMS5003;69721;55.894;-3.052;2023-08-12T16:32:55;1;1;
80396;PMS5003;69721;55.894;-3.052;2023-08-12T16:35:20;0;0;
80396;PMS5003;69721;55.894;-3.052;2023-08-12T16:37:45;0;0;
80396;PMS5003;69721;55.894;-3.052;2023-08-12T16:40:11;2;2;
80396;PMS5003;69721;55.894;-3.052;2023-08-12T16:42:36;0;0;
80396;PMS5003;69721;55.894;-3.052;2023-08-12T16:45:01;1;0;
80396;PMS5003;69721;55.894;-3.052;2023-08-12T16:47:26;1;1;
80396;PMS5003;69721;55.894;-3.052;2023-08-12T16:49:52;1;1;
80396;PMS5003;69721;55.894;-3.052;2023-08-12T16:52:17;1;1;
80396;PMS5003;69721;55.894;-3.052;2023-08-12T16:54:43;2;0;
80396;PMS5003;69721;55.894;-3.052;2023-08-12T16:57:08;1;1;
80396;PMS5003;69721;55.894;-3.052;2023-08-12T16:59:33;1;1;